sensor_id;sensor_type;location;lat;lon;timestamp;P1;durP1;ratioP1;P2;durP2;ratioP2
10389;SDS011;5241;47.830;12.972;2023-07-31T00:00:27;6.00;;;4.60;;
10389;SDS011;5241;47.830;12.972;2023-07-31T00:02:53;5.63;;;5.07;;
10389;SDS011;5241;47.830;12.972;2023-07-31T00:05:19;5.33;;;4.67;;
10389;SDS011;5241;47.830;12.972;2023-07-31T00:07:45;5.53;;;4.80;;
10389;SDS011;5241;47.830;12.972;2023-07-31T00:10:10;8.13;;;4.63;;
10389;SDS011;5241;47.830;12.972;2023-07-31T00:12:37;5.67;;;4.43;;
10389;SDS011;5241;47.830;12.972;2023-07-31T00:15:07;5.33;;;4.83;;
10389;SDS011;5241;47.830;12.972;2023-07-31T00:17:33;6.50;;;4.93;;
10389;SDS011;5241;47.830;12.972;2023-07-31T00:19:59;6.63;;;5.63;;
10389;SDS011;5241;47.830;12.972;2023-07-31T00:22:25;6.77;;;4.37;;
10389;SDS011;5241;47.830;12.972;2023-07-31T00:24:50;4.80;;;4.10;;
10389;SDS011;5241;47.830;12.972;2023-07-31T00:27:16;4.90;;;3.47;;
10389;SDS011;5241;47.830;12.972;2023-07-31T00:29:42;7.13;;;3.90;;
10389;SDS011;5241;47.830;12.972;2023-07-31T00:32:07;6.33;;;4.20;;
10389;SDS011;5241;47.830;12.972;2023-07-31T00:34:33;6.70;;;4.10;;
10389;SDS011;5241;47.830;12.972;2023-07-31T00:36:58;4.47;;;4.07;;
10389;SDS011;5241;47.830;12.972;2023-07-31T00:39:24;4.50;;;4.10;;
10389;SDS011;5241;47.830;12.972;2023-07-31T00:41:49;7.73;;;4.37;;
10389;SDS011;5241;47.830;12.972;2023-07-31T00:44:15;6.40;;;4.43;;
10389;SDS011;5241;47.830;12.972;2023-07-31T00:46:40;7.27;;;4.60;;
10389;SDS011;5241;47.830;12.972;2023-07-31T00:49:06;6.13;;;4.23;;
10389;SDS011;5241;47.830;12.972;2023-07-31T00:51:33;6.60;;;4.53;;
10389;SDS011;5241;47.830;12.972;2023-07-31T00:53:59;6.70;;;4.20;;
10389;SDS011;5241;47.830;12.972;2023-07-31T00:56:25;11.63;;;4.70;;
10389;SDS011;5241;47.830;12.972;2023-07-31T00:58:52;5.33;;;4.43;;
10389;SDS011;5241;47.830;12.972;2023-07-31T01:01:17;4.60;;;4.10;;
10389;SDS011;5241;47.830;12.972;2023-07-31T01:03:43;9.83;;;4.73;;
10389;SDS011;5241;47.830;12.972;2023-07-31T01:08:46;5.40;;;4.90;;
10389;SDS011;5241;47.830;12.972;2023-07-31T01:11:19;6.13;;;4.73;;
10389;SDS011;5241;47.830;12.972;2023-07-31T01:13:52;6.97;;;4.97;;
10389;SDS011;5241;47.830;12.972;2023-07-31T01:16:19;8.63;;;5.40;;
10389;SDS011;5241;47.830;12.972;2023-07-31T01:18:44;7.20;;;5.60;;
10389;SDS011;5241;47.830;12.972;2023-07-31T01:21:21;7.77;;;5.93;;
10389;SDS011;5241;47.830;12.972;2023-07-31T01:26:43;7.60;;;5.93;;
10389;SDS011;5241;47.830;12.972;2023-07-31T01:29:17;7.10;;;6.10;;
10389;SDS011;5241;47.830;12.972;2023-07-31T01:31:50;9.00;;;6.40;;
10389;SDS011;5241;47.830;12.972;2023-07-31T01:34:19;7.50;;;6.10;;
10389;SDS011;5241;47.830;12.972;2023-07-31T01:36:47;7.07;;;6.00;;
10389;SDS011;5241;47.830;12.972;2023-07-31T01:39:12;6.87;;;6.23;;
10389;SDS011;5241;47.830;12.972;2023-07-31T01:41:40;8.30;;;5.70;;
10389;SDS011;5241;47.830;12.972;2023-07-31T01:44:06;7.17;;;5.83;;
10389;SDS011;5241;47.830;12.972;2023-07-31T01:46:31;10.83;;;5.80;;
10389;SDS011;5241;47.830;12.972;2023-07-31T01:48:57;9.77;;;6.83;;
10389;SDS011;5241;47.830;12.972;2023-07-31T01:51:23;11.97;;;7.23;;
10389;SDS011;5241;47.830;12.972;2023-07-31T01:53:49;8.23;;;7.23;;
10389;SDS011;5241;47.830;12.972;2023-07-31T01:56:14;8.40;;;7.20;;
10389;SDS011;5241;47.830;12.972;2023-07-31T01:58:40;9.83;;;7.30;;
10389;SDS011;5241;47.830;12.972;2023-07-31T02:01:06;10.90;;;7.57;;
10389;SDS011;5241;47.830;12.972;2023-07-31T02:03:31;14.57;;;7.33;;
10389;SDS011;5241;47.830;12.972;2023-07-31T02:05:57;10.70;;;7.53;;
10389;SDS011;5241;47.830;12.972;2023-07-31T02:08:22;10.50;;;7.90;;
10389;SDS011;5241;47.830;12.972;2023-07-31T02:10:48;10.13;;;7.23;;
10389;SDS011;5241;47.830;12.972;2023-07-31T02:13:13;13.23;;;8.00;;
10389;SDS011;5241;47.830;12.972;2023-07-31T02:15:39;8.60;;;7.57;;
10389;SDS011;5241;47.830;12.972;2023-07-31T02:18:04;9.93;;;7.70;;
10389;SDS011;5241;47.830;12.972;2023-07-31T02:20:33;8.50;;;7.70;;
10389;SDS011;5241;47.830;12.972;2023-07-31T02:22:59;9.87;;;8.13;;
10389;SDS011;5241;47.830;12.972;2023-07-31T02:25:24;9.20;;;7.97;;
10389;SDS011;5241;47.830;12.972;2023-07-31T02:27:50;8.53;;;7.30;;
10389;SDS011;5241;47.830;12.972;2023-07-31T02:30:15;13.10;;;7.67;;
10389;SDS011;5241;47.830;12.972;2023-07-31T02:32:41;7.60;;;6.90;;
10389;SDS011;5241;47.830;12.972;2023-07-31T02:35:06;11.30;;;8.40;;
10389;SDS011;5241;47.830;12.972;2023-07-31T02:37:33;9.20;;;7.30;;
10389;SDS011;5241;47.830;12.972;2023-07-31T02:39:59;8.00;;;7.20;;
10389;SDS011;5241;47.830;12.972;2023-07-31T02:42:24;8.83;;;6.97;;
10389;SDS011;5241;47.830;12.972;2023-07-31T02:44:50;7.53;;;6.83;;
10389;SDS011;5241;47.830;12.972;2023-07-31T02:47:21;10.07;;;7.67;;
10389;SDS011;5241;47.830;12.972;2023-07-31T02:49:49;10.67;;;8.00;;
10389;SDS011;5241;47.830;12.972;2023-07-31T02:52:15;12.27;;;9.00;;
10389;SDS011;5241;47.830;12.972;2023-07-31T02:54:40;11.33;;;8.53;;
10389;SDS011;5241;47.830;12.972;2023-07-31T02:57:06;8.40;;;7.70;;
10389;SDS011;5241;47.830;12.972;2023-07-31T02:59:33;12.47;;;8.33;;
10389;SDS011;5241;47.830;12.972;2023-07-31T03:01:58;11.10;;;8.00;;
10389;SDS011;5241;47.830;12.972;2023-07-31T03:04:24;14.50;;;7.73;;
10389;SDS011;5241;47.830;12.972;2023-07-31T03:06:49;8.70;;;6.73;;
10389;SDS011;5241;47.830;12.972;2023-07-31T03:09:15;10.67;;;7.10;;
10389;SDS011;5241;47.830;12.972;2023-07-31T03:11:40;10.17;;;6.40;;
10389;SDS011;5241;47.830;12.972;2023-07-31T03:14:06;8.90;;;6.33;;
10389;SDS011;5241;47.830;12.972;2023-07-31T03:16:31;7.43;;;6.70;;
10389;SDS011;5241;47.830;12.972;2023-07-31T03:18:57;9.90;;;7.00;;
10389;SDS011;5241;47.830;12.972;2023-07-31T03:21:23;10.13;;;6.97;;
10389;SDS011;5241;47.830;12.972;2023-07-31T03:23:48;8.50;;;6.83;;
10389;SDS011;5241;47.830;12.972;2023-07-31T03:26:14;9.13;;;6.67;;
10389;SDS011;5241;47.830;12.972;2023-07-31T03:28:39;7.70;;;7.00;;
10389;SDS011;5241;47.830;12.972;2023-07-31T03:31:05;7.97;;;7.07;;
10389;SDS011;5241;47.830;12.972;2023-07-31T03:33:30;9.97;;;7.27;;
10389;SDS011;5241;47.830;12.972;2023-07-31T03:35:56;9.53;;;7.70;;
10389;SDS011;5241;47.830;12.972;2023-07-31T03:38:22;9.63;;;6.53;;
10389;SDS011;5241;47.830;12.972;2023-07-31T03:40:48;10.30;;;7.00;;
10389;SDS011;5241;47.830;12.972;2023-07-31T03:43:13;9.00;;;7.00;;
10389;SDS011;5241;47.830;12.972;2023-07-31T03:45:40;8.93;;;7.57;;
10389;SDS011;5241;47.830;12.972;2023-07-31T03:48:06;9.17;;;7.57;;
10389;SDS011;5241;47.830;12.972;2023-07-31T03:50:32;9.77;;;8.30;;
10389;SDS011;5241;47.830;12.972;2023-07-31T03:52:58;9.20;;;8.00;;
10389;SDS011;5241;47.830;12.972;2023-07-31T03:55:23;13.20;;;8.20;;
10389;SDS011;5241;47.830;12.972;2023-07-31T03:57:49;9.53;;;7.33;;
10389;SDS011;5241;47.830;12.972;2023-07-31T04:00:15;9.53;;;8.20;;
10389;SDS011;5241;47.830;12.972;2023-07-31T04:02:40;9.10;;;7.93;;
10389;SDS011;5241;47.830;12.972;2023-07-31T04:05:06;7.63;;;6.83;;
10389;SDS011;5241;47.830;12.972;2023-07-31T04:07:32;9.10;;;7.80;;
10389;SDS011;5241;47.830;12.972;2023-07-31T04:09:58;9.97;;;7.83;;
10389;SDS011;5241;47.830;12.972;2023-07-31T04:12:24;8.57;;;7.77;;
10389;SDS011;5241;47.830;12.972;2023-07-31T04:14:50;10.87;;;8.30;;
10389;SDS011;5241;47.830;12.972;2023-07-31T04:17:15;10.07;;;8.47;;
10389;SDS011;5241;47.830;12.972;2023-07-31T04:19:43;8.97;;;8.07;;
10389;SDS011;5241;47.830;12.972;2023-07-31T04:22:08;8.87;;;7.77;;
10389;SDS011;5241;47.830;12.972;2023-07-31T04:24:34;9.50;;;7.27;;
10389;SDS011;5241;47.830;12.972;2023-07-31T04:27:01;15.80;;;7.80;;
10389;SDS011;5241;47.830;12.972;2023-07-31T04:29:26;9.27;;;7.37;;
10389;SDS011;5241;47.830;12.972;2023-07-31T04:31:52;8.43;;;6.83;;
10389;SDS011;5241;47.830;12.972;2023-07-31T04:34:17;7.27;;;5.80;;
10389;SDS011;5241;47.830;12.972;2023-07-31T04:36:43;6.80;;;6.03;;
10389;SDS011;5241;47.830;12.972;2023-07-31T04:39:08;12.07;;;6.50;;
10389;SDS011;5241;47.830;12.972;2023-07-31T04:41:34;8.73;;;6.03;;
10389;SDS011;5241;47.830;12.972;2023-07-31T04:44:00;6.40;;;5.80;;
10389;SDS011;5241;47.830;12.972;2023-07-31T04:46:28;6.27;;;5.70;;
10389;SDS011;5241;47.830;12.972;2023-07-31T04:48:54;8.13;;;5.07;;
10389;SDS011;5241;47.830;12.972;2023-07-31T04:51:19;5.30;;;4.90;;
10389;SDS011;5241;47.830;12.972;2023-07-31T04:53:46;6.53;;;4.77;;
10389;SDS011;5241;47.830;12.972;2023-07-31T04:56:12;5.60;;;4.73;;
10389;SDS011;5241;47.830;12.972;2023-07-31T04:58:39;11.47;;;5.10;;
10389;SDS011;5241;47.830;12.972;2023-07-31T05:01:04;5.53;;;4.60;;
10389;SDS011;5241;47.830;12.972;2023-07-31T05:03:30;5.60;;;3.73;;
10389;SDS011;5241;47.830;12.972;2023-07-31T05:05:55;4.93;;;3.57;;
10389;SDS011;5241;47.830;12.972;2023-07-31T05:08:21;4.47;;;3.17;;
10389;SDS011;5241;47.830;12.972;2023-07-31T05:10:46;6.97;;;3.80;;
10389;SDS011;5241;47.830;12.972;2023-07-31T05:13:12;5.43;;;3.07;;
10389;SDS011;5241;47.830;12.972;2023-07-31T05:15:37;5.73;;;2.67;;
10389;SDS011;5241;47.830;12.972;2023-07-31T05:18:03;3.97;;;2.97;;
10389;SDS011;5241;47.830;12.972;2023-07-31T05:20:28;6.07;;;3.10;;
10389;SDS011;5241;47.830;12.972;2023-07-31T05:22:54;5.10;;;2.90;;
10389;SDS011;5241;47.830;12.972;2023-07-31T05:25:19;4.70;;;2.80;;
10389;SDS011;5241;47.830;12.972;2023-07-31T05:27:45;6.00;;;3.20;;
10389;SDS011;5241;47.830;12.972;2023-07-31T05:30:11;7.60;;;3.20;;
10389;SDS011;5241;47.830;12.972;2023-07-31T05:32:36;5.60;;;2.80;;
10389;SDS011;5241;47.830;12.972;2023-07-31T05:35:02;6.53;;;2.90;;
10389;SDS011;5241;47.830;12.972;2023-07-31T05:37:28;5.27;;;3.00;;
10389;SDS011;5241;47.830;12.972;2023-07-31T05:39:53;5.70;;;3.03;;
10389;SDS011;5241;47.830;12.972;2023-07-31T05:42:19;7.67;;;4.07;;
10389;SDS011;5241;47.830;12.972;2023-07-31T05:44:44;4.40;;;2.50;;
10389;SDS011;5241;47.830;12.972;2023-07-31T05:47:10;3.23;;;2.87;;
10389;SDS011;5241;47.830;12.972;2023-07-31T05:49:35;4.00;;;2.63;;
10389;SDS011;5241;47.830;12.972;2023-07-31T05:52:01;5.47;;;2.90;;
10389;SDS011;5241;47.830;12.972;2023-07-31T05:54:27;6.70;;;2.87;;
10389;SDS011;5241;47.830;12.972;2023-07-31T05:56:52;6.50;;;3.20;;
10389;SDS011;5241;47.830;12.972;2023-07-31T05:59:18;2.90;;;2.50;;
10389;SDS011;5241;47.830;12.972;2023-07-31T06:01:43;4.73;;;2.60;;
10389;SDS011;5241;47.830;12.972;2023-07-31T06:04:09;6.23;;;2.70;;
10389;SDS011;5241;47.830;12.972;2023-07-31T06:06:34;3.07;;;2.60;;
10389;SDS011;5241;47.830;12.972;2023-07-31T06:09:00;3.40;;;2.50;;
10389;SDS011;5241;47.830;12.972;2023-07-31T06:11:25;3.80;;;2.50;;
10389;SDS011;5241;47.830;12.972;2023-07-31T06:13:51;5.27;;;2.77;;
10389;SDS011;5241;47.830;12.972;2023-07-31T06:16:17;3.23;;;2.27;;
10389;SDS011;5241;47.830;12.972;2023-07-31T06:18:42;4.23;;;2.63;;
10389;SDS011;5241;47.830;12.972;2023-07-31T06:21:08;4.47;;;2.53;;
10389;SDS011;5241;47.830;12.972;2023-07-31T06:23:34;4.80;;;2.30;;
10389;SDS011;5241;47.830;12.972;2023-07-31T06:26:00;4.77;;;2.43;;
10389;SDS011;5241;47.830;12.972;2023-07-31T06:28:29;2.20;;;2.00;;
10389;SDS011;5241;47.830;12.972;2023-07-31T06:30:55;6.87;;;2.80;;
10389;SDS011;5241;47.830;12.972;2023-07-31T06:33:21;4.37;;;2.50;;
10389;SDS011;5241;47.830;12.972;2023-07-31T06:35:47;3.97;;;2.33;;
10389;SDS011;5241;47.830;12.972;2023-07-31T06:38:12;3.67;;;2.77;;
10389;SDS011;5241;47.830;12.972;2023-07-31T06:40:38;5.77;;;2.40;;
10389;SDS011;5241;47.830;12.972;2023-07-31T06:43:03;7.17;;;2.77;;
10389;SDS011;5241;47.830;12.972;2023-07-31T06:45:33;4.10;;;2.33;;
10389;SDS011;5241;47.830;12.972;2023-07-31T06:48:01;3.93;;;1.90;;
10389;SDS011;5241;47.830;12.972;2023-07-31T06:50:28;4.00;;;2.20;;
10389;SDS011;5241;47.830;12.972;2023-07-31T06:52:53;3.60;;;2.23;;
10389;SDS011;5241;47.830;12.972;2023-07-31T06:55:20;4.67;;;2.37;;
10389;SDS011;5241;47.830;12.972;2023-07-31T06:57:47;4.27;;;2.13;;
10389;SDS011;5241;47.830;12.972;2023-07-31T07:00:13;4.47;;;3.20;;
10389;SDS011;5241;47.830;12.972;2023-07-31T07:02:39;4.53;;;3.10;;
10389;SDS011;5241;47.830;12.972;2023-07-31T07:05:06;5.10;;;3.10;;
10389;SDS011;5241;47.830;12.972;2023-07-31T07:07:32;3.93;;;2.77;;
10389;SDS011;5241;47.830;12.972;2023-07-31T07:09:57;4.63;;;2.53;;
10389;SDS011;5241;47.830;12.972;2023-07-31T07:12:24;4.00;;;1.93;;
10389;SDS011;5241;47.830;12.972;2023-07-31T07:14:50;3.00;;;2.00;;
10389;SDS011;5241;47.830;12.972;2023-07-31T07:17:17;3.30;;;2.13;;
10389;SDS011;5241;47.830;12.972;2023-07-31T07:19:43;5.07;;;1.87;;
10389;SDS011;5241;47.830;12.972;2023-07-31T07:22:10;2.37;;;2.00;;
10389;SDS011;5241;47.830;12.972;2023-07-31T07:24:36;5.17;;;2.00;;
10389;SDS011;5241;47.830;12.972;2023-07-31T07:27:02;6.47;;;1.60;;
10389;SDS011;5241;47.830;12.972;2023-07-31T07:29:28;2.60;;;1.57;;
10389;SDS011;5241;47.830;12.972;2023-07-31T07:31:53;3.37;;;2.10;;
10389;SDS011;5241;47.830;12.972;2023-07-31T07:34:28;2.80;;;2.07;;
10389;SDS011;5241;47.830;12.972;2023-07-31T07:36:54;4.77;;;2.10;;
10389;SDS011;5241;47.830;12.972;2023-07-31T07:39:20;3.73;;;1.60;;
10389;SDS011;5241;47.830;12.972;2023-07-31T07:41:46;4.50;;;2.03;;
10389;SDS011;5241;47.830;12.972;2023-07-31T07:44:12;3.17;;;2.13;;
10389;SDS011;5241;47.830;12.972;2023-07-31T07:46:38;1.97;;;1.60;;
10389;SDS011;5241;47.830;12.972;2023-07-31T07:49:04;3.20;;;1.73;;
10389;SDS011;5241;47.830;12.972;2023-07-31T07:51:29;2.60;;;1.83;;
10389;SDS011;5241;47.830;12.972;2023-07-31T07:53:56;4.23;;;2.00;;
10389;SDS011;5241;47.830;12.972;2023-07-31T07:56:23;4.27;;;1.70;;
10389;SDS011;5241;47.830;12.972;2023-07-31T07:58:49;3.93;;;1.80;;
10389;SDS011;5241;47.830;12.972;2023-07-31T08:01:15;3.53;;;1.67;;
10389;SDS011;5241;47.830;12.972;2023-07-31T08:03:41;2.20;;;1.60;;
10389;SDS011;5241;47.830;12.972;2023-07-31T08:06:07;3.40;;;2.10;;
10389;SDS011;5241;47.830;12.972;2023-07-31T08:08:34;3.30;;;1.70;;
10389;SDS011;5241;47.830;12.972;2023-07-31T08:11:00;3.30;;;1.67;;
10389;SDS011;5241;47.830;12.972;2023-07-31T08:13:26;4.97;;;1.73;;
10389;SDS011;5241;47.830;12.972;2023-07-31T08:15:51;2.33;;;1.67;;
10389;SDS011;5241;47.830;12.972;2023-07-31T08:18:17;2.63;;;1.80;;
10389;SDS011;5241;47.830;12.972;2023-07-31T08:20:43;5.00;;;1.97;;
10389;SDS011;5241;47.830;12.972;2023-07-31T08:23:08;1.87;;;1.77;;
10389;SDS011;5241;47.830;12.972;2023-07-31T08:25:34;2.30;;;1.63;;
10389;SDS011;5241;47.830;12.972;2023-07-31T08:28:01;2.93;;;1.57;;
10389;SDS011;5241;47.830;12.972;2023-07-31T08:30:27;2.50;;;1.60;;
10389;SDS011;5241;47.830;12.972;2023-07-31T08:32:53;2.77;;;1.80;;
10389;SDS011;5241;47.830;12.972;2023-07-31T08:35:18;2.63;;;1.67;;
10389;SDS011;5241;47.830;12.972;2023-07-31T08:37:44;2.30;;;1.60;;
10389;SDS011;5241;47.830;12.972;2023-07-31T08:40:12;2.30;;;1.70;;
10389;SDS011;5241;47.830;12.972;2023-07-31T08:42:43;2.50;;;1.77;;
10389;SDS011;5241;47.830;12.972;2023-07-31T08:45:09;3.60;;;1.90;;
10389;SDS011;5241;47.830;12.972;2023-07-31T08:47:50;4.37;;;2.00;;
10389;SDS011;5241;47.830;12.972;2023-07-31T08:50:18;3.00;;;1.80;;
10389;SDS011;5241;47.830;12.972;2023-07-31T08:52:45;3.70;;;1.80;;
10389;SDS011;5241;47.830;12.972;2023-07-31T08:55:12;4.53;;;2.00;;
10389;SDS011;5241;47.830;12.972;2023-07-31T08:57:38;3.13;;;1.80;;
10389;SDS011;5241;47.830;12.972;2023-07-31T09:00:05;3.67;;;2.10;;
10389;SDS011;5241;47.830;12.972;2023-07-31T09:02:38;3.83;;;1.90;;
10389;SDS011;5241;47.830;12.972;2023-07-31T09:05:11;3.43;;;2.10;;
10389;SDS011;5241;47.830;12.972;2023-07-31T09:07:37;4.50;;;1.83;;
10389;SDS011;5241;47.830;12.972;2023-07-31T09:10:03;4.33;;;2.50;;
10389;SDS011;5241;47.830;12.972;2023-07-31T09:12:29;2.83;;;1.83;;
10389;SDS011;5241;47.830;12.972;2023-07-31T09:14:56;3.40;;;2.20;;
10389;SDS011;5241;47.830;12.972;2023-07-31T09:17:29;2.27;;;2.07;;
10389;SDS011;5241;47.830;12.972;2023-07-31T09:20:12;2.13;;;1.60;;
10389;SDS011;5241;47.830;12.972;2023-07-31T09:22:38;3.20;;;2.13;;
10389;SDS011;5241;47.830;12.972;2023-07-31T09:25:20;3.07;;;1.90;;
10389;SDS011;5241;47.830;12.972;2023-07-31T09:27:52;2.67;;;1.90;;
10389;SDS011;5241;47.830;12.972;2023-07-31T09:30:25;2.57;;;1.90;;
10389;SDS011;5241;47.830;12.972;2023-07-31T09:32:52;3.43;;;2.10;;
10389;SDS011;5241;47.830;12.972;2023-07-31T09:35:30;4.27;;;1.93;;
10389;SDS011;5241;47.830;12.972;2023-07-31T09:37:58;4.10;;;1.90;;
10389;SDS011;5241;47.830;12.972;2023-07-31T09:42:51;2.23;;;1.83;;
10389;SDS011;5241;47.830;12.972;2023-07-31T09:45:16;2.93;;;2.17;;
10389;SDS011;5241;47.830;12.972;2023-07-31T09:47:47;2.33;;;2.00;;
10389;SDS011;5241;47.830;12.972;2023-07-31T09:50:16;2.60;;;1.90;;
10389;SDS011;5241;47.830;12.972;2023-07-31T09:52:42;4.50;;;2.13;;
10389;SDS011;5241;47.830;12.972;2023-07-31T09:55:08;3.03;;;2.20;;
10389;SDS011;5241;47.830;12.972;2023-07-31T09:57:37;2.30;;;2.10;;
10389;SDS011;5241;47.830;12.972;2023-07-31T10:00:06;3.23;;;2.20;;
10389;SDS011;5241;47.830;12.972;2023-07-31T10:02:34;3.43;;;2.20;;
10389;SDS011;5241;47.830;12.972;2023-07-31T10:05:02;3.20;;;2.10;;
10389;SDS011;5241;47.830;12.972;2023-07-31T10:07:29;3.00;;;2.20;;
10389;SDS011;5241;47.830;12.972;2023-07-31T10:09:57;3.30;;;2.10;;
10389;SDS011;5241;47.830;12.972;2023-07-31T10:12:28;3.23;;;2.30;;
10389;SDS011;5241;47.830;12.972;2023-07-31T10:14:54;2.17;;;1.83;;
10389;SDS011;5241;47.830;12.972;2023-07-31T10:17:21;2.33;;;1.90;;
10389;SDS011;5241;47.830;12.972;2023-07-31T10:19:50;4.10;;;2.20;;
10389;SDS011;5241;47.830;12.972;2023-07-31T10:22:16;2.60;;;2.00;;
10389;SDS011;5241;47.830;12.972;2023-07-31T10:24:43;3.67;;;2.20;;
10389;SDS011;5241;47.830;12.972;2023-07-31T10:27:10;8.77;;;2.20;;
10389;SDS011;5241;47.830;12.972;2023-07-31T10:29:37;3.00;;;2.17;;
10389;SDS011;5241;47.830;12.972;2023-07-31T10:32:04;2.50;;;2.20;;
10389;SDS011;5241;47.830;12.972;2023-07-31T10:34:33;4.53;;;2.37;;
10389;SDS011;5241;47.830;12.972;2023-07-31T10:37:19;3.07;;;2.17;;
10389;SDS011;5241;47.830;12.972;2023-07-31T10:42:20;3.47;;;2.13;;
10389;SDS011;5241;47.830;12.972;2023-07-31T10:44:56;2.57;;;1.80;;
10389;SDS011;5241;47.830;12.972;2023-07-31T10:47:25;3.80;;;2.60;;
10389;SDS011;5241;47.830;12.972;2023-07-31T10:49:51;2.80;;;2.10;;
10389;SDS011;5241;47.830;12.972;2023-07-31T10:52:21;5.47;;;2.20;;
10389;SDS011;5241;47.830;12.972;2023-07-31T10:54:50;2.97;;;2.23;;
10389;SDS011;5241;47.830;12.972;2023-07-31T10:57:39;4.63;;;2.23;;
10389;SDS011;5241;47.830;12.972;2023-07-31T11:00:18;2.53;;;2.00;;
10389;SDS011;5241;47.830;12.972;2023-07-31T11:02:58;3.87;;;2.17;;
10389;SDS011;5241;47.830;12.972;2023-07-31T11:05:40;5.57;;;2.30;;
10389;SDS011;5241;47.830;12.972;2023-07-31T11:08:19;2.30;;;2.10;;
10389;SDS011;5241;47.830;12.972;2023-07-31T11:10:47;3.50;;;2.27;;
10389;SDS011;5241;47.830;12.972;2023-07-31T11:13:15;2.87;;;2.00;;
10389;SDS011;5241;47.830;12.972;2023-07-31T11:15:40;4.63;;;2.13;;
10389;SDS011;5241;47.830;12.972;2023-07-31T11:18:06;3.17;;;2.30;;
10389;SDS011;5241;47.830;12.972;2023-07-31T11:20:33;3.80;;;2.10;;
10389;SDS011;5241;47.830;12.972;2023-07-31T11:23:00;4.40;;;2.03;;
10389;SDS011;5241;47.830;12.972;2023-07-31T11:25:28;3.13;;;2.23;;
10389;SDS011;5241;47.830;12.972;2023-07-31T11:28:03;2.97;;;2.00;;
10389;SDS011;5241;47.830;12.972;2023-07-31T11:30:30;4.00;;;2.13;;
10389;SDS011;5241;47.830;12.972;2023-07-31T11:32:56;2.57;;;2.37;;
10389;SDS011;5241;47.830;12.972;2023-07-31T11:35:21;2.67;;;1.80;;
10389;SDS011;5241;47.830;12.972;2023-07-31T11:37:47;2.87;;;2.00;;
10389;SDS011;5241;47.830;12.972;2023-07-31T11:40:13;2.50;;;1.97;;
10389;SDS011;5241;47.830;12.972;2023-07-31T11:42:39;2.20;;;1.80;;
10389;SDS011;5241;47.830;12.972;2023-07-31T11:45:06;2.60;;;2.20;;
10389;SDS011;5241;47.830;12.972;2023-07-31T11:47:33;4.50;;;2.10;;
10389;SDS011;5241;47.830;12.972;2023-07-31T11:50:02;2.67;;;2.10;;
10389;SDS011;5241;47.830;12.972;2023-07-31T11:52:29;2.37;;;1.80;;
10389;SDS011;5241;47.830;12.972;2023-07-31T11:54:57;2.90;;;2.13;;
10389;SDS011;5241;47.830;12.972;2023-07-31T11:57:23;2.13;;;1.93;;
10389;SDS011;5241;47.830;12.972;2023-07-31T11:59:50;5.73;;;2.23;;
10389;SDS011;5241;47.830;12.972;2023-07-31T12:02:16;2.37;;;2.00;;
10389;SDS011;5241;47.830;12.972;2023-07-31T12:04:43;3.97;;;2.27;;
10389;SDS011;5241;47.830;12.972;2023-07-31T12:07:10;2.07;;;1.87;;
10389;SDS011;5241;47.830;12.972;2023-07-31T12:09:37;3.23;;;2.30;;
10389;SDS011;5241;47.830;12.972;2023-07-31T12:12:03;2.05;;;1.85;;
10389;SDS011;5241;47.830;12.972;2023-07-31T12:14:34;3.70;;;1.73;;
10389;SDS011;5241;47.830;12.972;2023-07-31T12:17:00;2.77;;;2.00;;
10389;SDS011;5241;47.830;12.972;2023-07-31T12:19:29;1.90;;;1.80;;
10389;SDS011;5241;47.830;12.972;2023-07-31T12:21:56;2.57;;;2.07;;
10389;SDS011;5241;47.830;12.972;2023-07-31T12:24:21;2.90;;;2.00;;
10389;SDS011;5241;47.830;12.972;2023-07-31T12:26:47;2.80;;;2.03;;
10389;SDS011;5241;47.830;12.972;2023-07-31T12:29:14;2.63;;;2.10;;
10389;SDS011;5241;47.830;12.972;2023-07-31T12:31:40;4.17;;;2.57;;
10389;SDS011;5241;47.830;12.972;2023-07-31T12:34:14;3.17;;;1.90;;
10389;SDS011;5241;47.830;12.972;2023-07-31T12:36:42;2.47;;;1.70;;
10389;SDS011;5241;47.830;12.972;2023-07-31T12:39:08;1.90;;;1.80;;
10389;SDS011;5241;47.830;12.972;2023-07-31T12:41:33;3.47;;;2.10;;
10389;SDS011;5241;47.830;12.972;2023-07-31T12:43:59;2.20;;;1.98;;
10389;SDS011;5241;47.830;12.972;2023-07-31T12:46:24;1.88;;;1.70;;
10389;SDS011;5241;47.830;12.972;2023-07-31T12:48:50;2.20;;;2.00;;
10389;SDS011;5241;47.830;12.972;2023-07-31T12:51:16;2.30;;;2.10;;
10389;SDS011;5241;47.830;12.972;2023-07-31T12:53:41;3.75;;;1.90;;
10389;SDS011;5241;47.830;12.972;2023-07-31T12:56:07;2.92;;;2.22;;
10389;SDS011;5241;47.830;12.972;2023-07-31T12:58:32;2.13;;;1.92;;
10389;SDS011;5241;47.830;12.972;2023-07-31T13:00:58;2.22;;;1.98;;
10389;SDS011;5241;47.830;12.972;2023-07-31T13:03:23;2.28;;;2.08;;
10389;SDS011;5241;47.830;12.972;2023-07-31T13:05:49;3.15;;;1.98;;
10389;SDS011;5241;47.830;12.972;2023-07-31T13:08:15;2.38;;;2.13;;
10389;SDS011;5241;47.830;12.972;2023-07-31T13:10:42;2.10;;;1.90;;
10389;SDS011;5241;47.830;12.972;2023-07-31T13:13:08;2.17;;;1.90;;
10389;SDS011;5241;47.830;12.972;2023-07-31T13:15:34;2.83;;;2.20;;
10389;SDS011;5241;47.830;12.972;2023-07-31T13:18:00;2.88;;;2.00;;
10389;SDS011;5241;47.830;12.972;2023-07-31T13:20:25;2.67;;;2.08;;
10389;SDS011;5241;47.830;12.972;2023-07-31T13:22:54;2.25;;;2.05;;
10389;SDS011;5241;47.830;12.972;2023-07-31T13:25:20;2.88;;;1.80;;
10389;SDS011;5241;47.830;12.972;2023-07-31T13:27:45;3.22;;;2.08;;
10389;SDS011;5241;47.830;12.972;2023-07-31T13:30:11;2.30;;;2.05;;
10389;SDS011;5241;47.830;12.972;2023-07-31T13:32:36;4.80;;;2.03;;
10389;SDS011;5241;47.830;12.972;2023-07-31T13:35:04;2.20;;;2.00;;
10389;SDS011;5241;47.830;12.972;2023-07-31T13:37:33;3.15;;;2.28;;
10389;SDS011;5241;47.830;12.972;2023-07-31T13:39:59;3.05;;;2.25;;
10389;SDS011;5241;47.830;12.972;2023-07-31T13:42:25;2.40;;;2.20;;
10389;SDS011;5241;47.830;12.972;2023-07-31T13:44:50;2.50;;;1.98;;
10389;SDS011;5241;47.830;12.972;2023-07-31T13:47:17;2.65;;;2.33;;
10389;SDS011;5241;47.830;12.972;2023-07-31T13:49:42;2.97;;;2.00;;
10389;SDS011;5241;47.830;12.972;2023-07-31T13:52:08;2.38;;;2.15;;
10389;SDS011;5241;47.830;12.972;2023-07-31T13:54:37;4.25;;;2.20;;
10389;SDS011;5241;47.830;12.972;2023-07-31T13:57:02;2.30;;;2.10;;
10389;SDS011;5241;47.830;12.972;2023-07-31T13:59:28;2.55;;;2.15;;
10389;SDS011;5241;47.830;12.972;2023-07-31T14:01:54;2.10;;;1.90;;
10389;SDS011;5241;47.830;12.972;2023-07-31T14:04:19;2.47;;;2.28;;
10389;SDS011;5241;47.830;12.972;2023-07-31T14:06:45;3.55;;;2.22;;
10389;SDS011;5241;47.830;12.972;2023-07-31T14:09:12;2.90;;;2.33;;
10389;SDS011;5241;47.830;12.972;2023-07-31T14:11:39;2.77;;;2.03;;
10389;SDS011;5241;47.830;12.972;2023-07-31T14:14:04;2.13;;;1.93;;
10389;SDS011;5241;47.830;12.972;2023-07-31T14:16:30;2.10;;;1.90;;
10389;SDS011;5241;47.830;12.972;2023-07-31T14:18:56;2.10;;;1.90;;
10389;SDS011;5241;47.830;12.972;2023-07-31T14:21:24;3.57;;;2.03;;
10389;SDS011;5241;47.830;12.972;2023-07-31T14:23:50;3.53;;;2.30;;
10389;SDS011;5241;47.830;12.972;2023-07-31T14:26:15;2.33;;;2.13;;
10389;SDS011;5241;47.830;12.972;2023-07-31T14:28:41;3.30;;;2.43;;
10389;SDS011;5241;47.830;12.972;2023-07-31T14:31:07;3.37;;;2.43;;
10389;SDS011;5241;47.830;12.972;2023-07-31T14:33:32;3.37;;;2.50;;
10389;SDS011;5241;47.830;12.972;2023-07-31T14:35:58;2.57;;;2.33;;
10389;SDS011;5241;47.830;12.972;2023-07-31T14:38:24;2.17;;;1.93;;
10389;SDS011;5241;47.830;12.972;2023-07-31T14:40:49;2.80;;;2.30;;
10389;SDS011;5241;47.830;12.972;2023-07-31T14:43:15;2.55;;;2.13;;
10389;SDS011;5241;47.830;12.972;2023-07-31T14:45:41;3.13;;;2.40;;
10389;SDS011;5241;47.830;12.972;2023-07-31T14:48:06;2.60;;;2.10;;
10389;SDS011;5241;47.830;12.972;2023-07-31T14:50:32;4.18;;;2.30;;
10389;SDS011;5241;47.830;12.972;2023-07-31T14:52:57;2.93;;;2.23;;